Time;durP1;ratioP1;P1;durP2;ratioP2;P2;SDS_P1;SDS_P2;PMS_P1;PMS_P2;Temp;Humidity;BMP_temperature;BMP_pressure;BME280_temperature;BME280_humidity;BME280_pressure;Samples;Min_cycle;Max_cycle;Signal;HPM_P1;HPM_P2
2023/10/28 00:00:47;;;;;;;9.05;2.10;;;13.80;93.70;;;;;;5092159;28;20051;-58
2023/10/28 00:03:13;;;;;;;12.10;2.72;;;13.90;93.70;;;;;;5074989;28;20032;-58
2023/10/28 00:05:39;;;;;;;11.07;2.40;;;13.90;93.80;;;;;;5109920;28;20381;-58
2023/10/28 00:08:05;;;;;;;8.57;2.25;;;13.80;93.70;;;;;;5074935;28;20032;-58
2023/10/28 00:10:31;;;;;;;10.73;2.17;;;13.80;93.70;;;;;;5109812;28;20028;-58
2023/10/28 00:12:57;;;;;;;8.80;2.53;;;13.80;94.00;;;;;;5091658;28;20047;-58
2023/10/28 00:15:24;;;;;;;7.38;2.10;;;13.80;93.70;;;;;;5074759;28;20031;-57
2023/10/28 00:17:50;;;;;;;5.57;2.10;;;13.80;93.70;;;;;;5074735;28;20027;-58
2023/10/28 00:20:18;;;;;;;8.40;2.20;;;13.80;94.00;;;;;;5091370;28;20060;-58
2023/10/28 00:22:48;;;;;;;5.00;1.80;;;13.80;93.70;;;;;;5074998;28;20032;-58
2023/10/28 00:25:14;;;;;;;6.32;1.65;;;13.80;93.70;;;;;;5109627;28;20046;-58
2023/10/28 00:27:40;;;;;;;11.80;2.40;;;13.80;93.70;;;;;;5058138;28;20031;-58
2023/10/28 00:30:07;;;;;;;7.07;2.00;;;13.80;93.70;;;;;;5091181;28;20028;-58
2023/10/28 00:32:33;;;;;;;10.65;1.98;;;13.70;93.70;;;;;;5091321;28;20020;-58
2023/10/28 00:34:59;;;;;;;8.07;1.98;;;13.70;93.70;;;;;;5074714;28;20034;-57
2023/10/28 00:37:25;;;;;;;10.93;1.88;;;13.70;93.70;;;;;;5091089;28;20044;-57
2023/10/28 00:39:52;;;;;;;9.68;2.38;;;13.70;93.70;;;;;;5091324;28;20031;-57
2023/10/28 00:42:17;;;;;;;10.07;1.85;;;13.70;93.80;;;;;;5109147;28;20028;-58
2023/10/28 00:44:43;;;;;;;7.03;1.85;;;13.70;93.80;;;;;;5057827;28;20031;-57
2023/10/28 00:47:09;;;;;;;10.05;1.90;;;13.70;93.80;;;;;;5091054;28;20410;-58
2023/10/28 00:49:35;;;;;;;8.38;1.80;;;13.70;93.80;;;;;;5074297;28;20035;-57
2023/10/28 00:52:01;;;;;;;9.40;2.13;;;13.70;93.80;;;;;;5090854;28;20024;-57
2023/10/28 00:54:27;;;;;;;5.80;1.60;;;13.60;93.80;;;;;;5090899;28;20063;-57
2023/10/28 00:56:53;;;;;;;5.63;1.52;;;13.60;93.80;;;;;;5073433;28;20032;-57
2023/10/28 00:59:19;;;;;;;5.30;1.77;;;13.60;93.80;;;;;;5074207;28;20036;-57
2023/10/28 01:01:44;;;;;;;8.25;1.80;;;13.60;93.80;;;;;;5074259;28;20468;-58
2023/10/28 01:04:10;;;;;;;5.97;1.67;;;13.60;94.10;;;;;;5073978;28;20028;-57
2023/10/28 01:06:37;;;;;;;6.97;1.85;;;13.60;93.90;;;;;;5073921;28;20028;-58
2023/10/28 01:09:02;;;;;;;5.90;1.60;;;13.60;93.90;;;;;;5073846;28;20050;-58
2023/10/28 01:11:28;;;;;;;5.25;1.40;;;13.60;93.90;;;;;;5090238;28;20032;-58
2023/10/28 01:13:54;;;;;;;3.97;1.42;;;13.60;93.90;;;;;;5090539;28;20042;-58
2023/10/28 01:16:22;;;;;;;6.10;1.20;;;13.60;93.80;;;;;;5108741;28;20038;-57
2023/10/28 01:18:57;;;;;;;6.22;1.45;;;13.50;93.80;;;;;;5074059;28;20085;-58
2023/10/28 01:21:23;;;;;;;8.27;1.58;;;13.50;93.80;;;;;;5074675;28;20036;-57
2023/10/28 01:23:49;;;;;;;5.28;1.33;;;13.50;93.80;;;;;;5108522;28;20043;-57
2023/10/28 01:26:14;;;;;;;5.38;1.33;;;13.50;93.80;;;;;;5108406;28;20075;-57
2023/10/28 01:28:40;;;;;;;7.65;1.60;;;13.50;93.90;;;;;;5073445;28;20031;-58
2023/10/28 01:31:06;;;;;;;4.57;1.30;;;13.50;93.90;;;;;;5073418;28;20036;-53
2023/10/28 01:33:31;;;;;;;4.30;1.30;;;13.40;94.00;;;;;;5108212;28;20114;-53
2023/10/28 01:35:57;;;;;;;4.43;1.40;;;13.50;94.00;;;;;;5073332;28;20107;-53
2023/10/28 01:38:23;;;;;;;3.10;1.73;;;13.40;94.00;;;;;;5108189;28;20024;-53
2023/10/28 01:40:51;;;;;;;2.70;1.40;;;13.40;94.10;;;;;;5073583;28;20055;-53
2023/10/28 01:43:17;;;;;;;3.78;1.35;;;13.40;94.10;;;;;;5090009;28;20035;-53
2023/10/28 01:45:42;;;;;;;5.65;1.60;;;13.40;94.40;;;;;;5089734;28;20028;-53
2023/10/28 01:48:08;;;;;;;3.47;1.42;;;13.40;94.20;;;;;;5089857;28;20024;-53
2023/10/28 01:50:33;;;;;;;4.63;1.58;;;13.30;94.20;;;;;;5107877;28;20051;-54
2023/10/28 01:52:59;;;;;;;4.63;1.50;;;13.30;94.20;;;;;;5089845;28;20035;-53
2023/10/28 01:55:25;;;;;;;4.32;1.38;;;13.40;94.20;;;;;;5107087;28;20088;-53
2023/10/28 01:57:51;;;;;;;2.58;1.23;;;13.30;94.30;;;;;;5072687;28;20028;-53
2023/10/28 02:00:16;;;;;;;4.80;1.30;;;13.30;94.30;;;;;;5073105;28;20081;-53
2023/10/28 02:02:44;;;;;;;3.70;1.40;;;13.30;94.30;;;;;;5107708;28;20087;-53
2023/10/28 02:05:09;;;;;;;4.55;1.58;;;13.30;94.30;;;;;;5089694;28;20062;-53
2023/10/28 02:07:35;;;;;;;5.70;1.70;;;13.30;94.30;;;;;;5072553;28;20032;-54
2023/10/28 02:10:01;;;;;;;2.60;1.50;;;13.30;94.30;;;;;;5088473;28;20147;-53
2023/10/28 02:12:26;;;;;;;5.25;1.60;;;13.30;94.30;;;;;;5089165;28;20112;-54
2023/10/28 02:14:52;;;;;;;4.15;1.52;;;13.30;94.30;;;;;;5089419;28;20031;-53
2023/10/28 02:17:18;;;;;;;4.65;1.58;;;13.30;94.30;;;;;;5107496;28;20074;-53
2023/10/28 02:19:44;;;;;;;4.10;1.70;;;13.30;94.40;;;;;;5089371;28;20029;-53
2023/10/28 02:22:10;;;;;;;4.32;1.52;;;13.30;94.40;;;;;;5072271;28;20095;-53
2023/10/28 02:24:36;;;;;;;5.53;1.73;;;13.30;94.40;;;;;;5089002;28;20020;-53
2023/10/28 02:27:01;;;;;;;2.05;1.27;;;13.30;94.40;;;;;;5088952;28;20028;-53
2023/10/28 02:29:27;;;;;;;4.43;1.60;;;13.30;94.40;;;;;;5107324;28;20039;-54
2023/10/28 02:31:53;;;;;;;3.30;1.75;;;13.30;94.40;;;;;;5072606;28;20024;-53
2023/10/28 02:34:18;;;;;;;3.92;1.30;;;13.30;94.50;;;;;;5107207;28;20060;-53
2023/10/28 02:36:44;;;;;;;2.88;1.52;;;13.30;94.40;;;;;;5107092;28;20020;-53
2023/10/28 02:39:12;;;;;;;4.57;1.67;;;13.30;94.40;;;;;;5088580;28;20031;-54
2023/10/28 02:41:38;;;;;;;4.05;1.70;;;13.20;94.40;;;;;;5089678;28;20032;-53
2023/10/28 02:44:04;;;;;;;2.92;1.58;;;13.30;94.50;;;;;;5072510;28;20054;-54
2023/10/28 02:46:30;;;;;;;3.35;1.60;;;13.20;94.50;;;;;;5088448;28;20120;-53
2023/10/28 02:48:55;;;;;;;10.77;3.65;;;13.20;94.50;;;;;;5106879;28;20024;-54
2023/10/28 02:51:21;;;;;;;6.32;2.72;;;13.20;94.50;;;;;;5088688;28;20073;-54
2023/10/28 02:53:47;;;;;;;5.18;1.80;;;13.30;94.50;;;;;;5088690;28;20024;-53
2023/10/28 02:56:12;;;;;;;5.57;2.47;;;13.20;94.50;;;;;;5106840;28;20039;-53
2023/10/28 02:58:39;;;;;;;5.00;2.33;;;13.30;94.50;;;;;;5088739;28;20076;-53
2023/10/28 03:01:11;;;;;;;5.97;2.70;;;13.20;94.50;;;;;;5106810;28;20028;-53
2023/10/28 03:03:38;;;;;;;5.38;2.88;;;13.20;94.50;;;;;;5088500;28;20050;-54
2023/10/28 03:06:03;;;;;;;5.10;2.70;;;13.20;94.60;;;;;;5072000;28;20032;-53
2023/10/28 03:08:29;;;;;;;8.02;2.90;;;13.20;94.60;;;;;;5071538;28;20057;-53
2023/10/28 03:10:55;;;;;;;9.50;2.55;;;13.30;94.70;;;;;;5106518;28;20031;-53
2023/10/28 03:13:21;;;;;;;5.50;2.40;;;13.20;94.80;;;;;;5071676;28;20024;-53
2023/10/28 03:15:46;;;;;;;7.90;2.38;;;13.20;94.90;;;;;;5106524;28;20020;-54
2023/10/28 03:18:13;;;;;;;6.43;2.72;;;13.20;94.90;;;;;;5088342;28;20140;-53
2023/10/28 03:20:40;;;;;;;4.20;2.08;;;13.30;95.00;;;;;;5087982;28;20051;-53
2023/10/28 03:23:06;;;;;;;6.38;2.45;;;13.20;95.00;;;;;;5071786;28;20039;-53
2023/10/28 03:25:31;;;;;;;4.70;2.55;;;13.20;95.00;;;;;;5088379;28;20036;-53
2023/10/28 03:28:00;;;;;;;4.68;2.42;;;13.20;95.10;;;;;;5106337;28;20048;-54
2023/10/28 03:30:26;;;;;;;5.60;2.72;;;13.20;95.20;;;;;;5072315;28;20031;-53
2023/10/28 03:32:51;;;;;;;5.13;2.80;;;13.20;95.20;;;;;;5106299;28;20024;-53
2023/10/28 03:35:17;;;;;;;6.35;2.83;;;13.20;95.20;;;;;;5088079;28;20110;-53
2023/10/28 03:37:44;;;;;;;5.95;2.90;;;13.20;95.20;;;;;;5071322;28;20414;-53
2023/10/28 03:40:10;;;;;;;5.07;2.83;;;13.10;95.20;;;;;;5071649;28;20047;-53
2023/10/28 03:42:36;;;;;;;5.35;3.08;;;13.20;95.20;;;;;;5088174;28;20031;-53
2023/10/28 03:45:08;;;;;;;5.47;2.90;;;13.10;95.20;;;;;;5071566;28;20383;-53
2023/10/28 03:47:34;;;;;;;4.07;2.60;;;13.10;95.20;;;;;;5105944;28;20023;-53
2023/10/28 03:49:59;;;;;;;7.55;2.78;;;13.20;95.30;;;;;;5088158;28;20488;-53
2023/10/28 03:52:26;;;;;;;5.10;2.75;;;13.10;95.20;;;;;;5071074;28;20042;-53
2023/10/28 03:54:51;;;;;;;9.05;3.28;;;13.10;95.20;;;;;;5087807;28;20028;-53
2023/10/28 03:57:17;;;;;;;6.53;2.78;;;13.10;95.20;;;;;;5106217;28;20425;-53
2023/10/28 03:59:45;;;;;;;7.05;3.00;;;13.10;95.20;;;;;;5106012;28;20032;-53
2023/10/28 04:02:11;;;;;;;4.57;2.67;;;13.10;95.20;;;;;;5071336;28;20547;-53
2023/10/28 04:04:36;;;;;;;6.82;2.72;;;13.10;95.20;;;;;;5087792;28;20085;-54
2023/10/28 04:07:02;;;;;;;5.47;2.90;;;13.10;95.20;;;;;;5106009;28;20054;-53
2023/10/28 04:09:27;;;;;;;6.18;2.70;;;13.10;95.20;;;;;;5087684;28;20058;-54
2023/10/28 04:11:53;;;;;;;10.90;2.55;;;13.10;95.10;;;;;;5087822;28;20028;-54
2023/10/28 04:14:18;;;;;;;8.73;3.10;;;13.10;95.40;;;;;;5087916;28;20496;-53
2023/10/28 04:16:44;;;;;;;6.30;3.00;;;13.10;95.10;;;;;;5105901;28;20024;-54
2023/10/28 04:19:09;;;;;;;10.90;3.40;;;13.10;95.10;;;;;;5106016;28;20028;-53
2023/10/28 04:21:35;;;;;;;5.07;3.28;;;13.10;95.10;;;;;;5105502;28;20500;-53
2023/10/28 04:24:01;;;;;;;5.20;2.83;;;13.10;95.10;;;;;;5087548;28;20024;-53
2023/10/28 04:26:26;;;;;;;7.28;2.92;;;13.10;95.10;;;;;;5090031;28;20121;-52
2023/10/28 04:28:52;;;;;;;8.32;3.13;;;13.00;95.10;;;;;;5092082;28;20032;-53
2023/10/28 04:31:17;;;;;;;5.25;2.67;;;13.00;95.10;;;;;;5071220;28;20118;-53
2023/10/28 04:33:43;;;;;;;5.57;3.15;;;13.00;95.10;;;;;;5091240;28;20024;-53
2023/10/28 04:36:09;;;;;;;8.48;2.83;;;13.00;95.10;;;;;;5090982;28;20024;-53
2023/10/28 04:38:37;;;;;;;8.40;3.13;;;13.00;95.10;;;;;;5091335;28;20051;-53
2023/10/28 04:41:02;;;;;;;6.75;2.90;;;13.00;95.10;;;;;;5091554;28;20028;-53
2023/10/28 04:43:29;;;;;;;5.72;2.50;;;13.00;95.40;;;;;;5109226;28;20449;-53
2023/10/28 04:45:54;;;;;;;6.57;2.80;;;13.00;95.00;;;;;;5074249;28;20059;-53
2023/10/28 04:48:21;;;;;;;4.85;2.75;;;13.00;95.00;;;;;;5109152;28;20024;-53
2023/10/28 04:50:47;;;;;;;5.65;2.60;;;13.00;95.00;;;;;;5109185;28;20430;-53
2023/10/28 04:53:13;;;;;;;4.38;2.90;;;12.90;95.00;;;;;;5091009;28;20029;-53
2023/10/28 04:55:38;;;;;;;5.35;2.88;;;12.90;95.00;;;;;;5090917;28;20021;-53
2023/10/28 04:58:05;;;;;;;7.03;2.80;;;12.90;94.90;;;;;;5074120;28;20036;-53
2023/10/28 05:00:31;;;;;;;4.50;2.47;;;12.90;94.90;;;;;;5090549;28;20039;-53
2023/10/28 05:02:56;;;;;;;4.03;2.20;;;12.90;94.90;;;;;;5090842;28;20400;-53
2023/10/28 05:05:22;;;;;;;7.03;2.78;;;12.90;94.90;;;;;;5074120;28;20028;-53
2023/10/28 05:07:47;;;;;;;7.65;2.67;;;12.90;94.90;;;;;;5090253;28;20028;-53
2023/10/28 05:10:13;;;;;;;9.85;2.30;;;12.90;94.90;;;;;;5108970;28;20024;-53
2023/10/28 05:12:40;;;;;;;8.30;2.75;;;12.90;94.90;;;;;;5092446;28;20023;-53
2023/10/28 05:15:07;;;;;;;9.23;2.38;;;12.90;94.90;;;;;;5090704;28;20375;-54
2023/10/28 05:17:32;;;;;;;7.68;2.33;;;12.90;94.90;;;;;;5073856;28;20024;-53
2023/10/28 05:19:58;;;;;;;10.10;2.40;;;12.90;94.90;;;;;;5073583;28;20020;-53
2023/10/28 05:22:23;;;;;;;4.35;2.22;;;12.80;94.90;;;;;;5108212;28;20031;-54
2023/10/28 05:24:52;;;;;;;3.53;2.15;;;12.80;94.90;;;;;;5074042;28;20052;-53
2023/10/28 05:27:18;;;;;;;5.63;2.40;;;12.80;94.90;;;;;;5090754;28;20031;-53
2023/10/28 05:29:43;;;;;;;4.35;1.88;;;12.80;94.90;;;;;;5090342;28;20039;-53
2023/10/28 05:32:09;;;;;;;3.88;2.15;;;12.80;94.90;;;;;;5090220;28;20036;-53
2023/10/28 05:34:34;;;;;;;4.40;2.13;;;12.80;94.90;;;;;;5108334;28;20119;-53
2023/10/28 05:37:00;;;;;;;6.90;2.10;;;12.70;94.90;;;;;;5108285;28;20042;-53
2023/10/28 05:39:25;;;;;;;7.05;2.20;;;12.80;94.90;;;;;;5108314;28;20024;-53
2023/10/28 05:41:51;;;;;;;5.07;2.03;;;12.70;94.90;;;;;;5089845;28;20064;-53
2023/10/28 05:44:17;;;;;;;4.20;1.77;;;12.70;94.90;;;;;;5089958;28;20023;-53
2023/10/28 05:46:44;;;;;;;3.97;2.10;;;12.70;94.90;;;;;;5108058;28;20032;-53
2023/10/28 05:49:12;;;;;;;5.63;2.00;;;12.70;94.90;;;;;;5090197;28;20032;-53
2023/10/28 05:51:38;;;;;;;4.30;2.33;;;12.70;94.90;;;;;;5107914;28;20036;-53
2023/10/28 05:54:04;;;;;;;3.85;1.85;;;12.70;95.00;;;;;;5089833;28;20115;-53
2023/10/28 05:56:30;;;;;;;4.18;2.08;;;12.70;95.00;;;;;;5089632;28;20032;-53
2023/10/28 05:58:58;;;;;;;3.97;2.10;;;12.60;95.00;;;;;;5089872;28;20024;-53
2023/10/28 06:01:27;;;;;;;6.97;1.65;;;12.70;95.00;;;;;;5107820;28;20107;-53
2023/10/28 06:03:52;;;;;;;3.20;1.65;;;12.60;95.00;;;;;;5090215;28;20039;-53
2023/10/28 06:06:18;;;;;;;3.92;1.90;;;12.60;95.00;;;;;;5108219;28;20103;-53
2023/10/28 06:08:43;;;;;;;2.08;1.40;;;12.60;95.00;;;;;;5073497;28;20488;-53
2023/10/28 06:11:11;;;;;;;2.75;1.88;;;12.60;95.00;;;;;;5089334;28;20032;-53
2023/10/28 06:13:37;;;;;;;3.38;1.92;;;12.60;95.00;;;;;;5089623;28;20026;-53
2023/10/28 06:16:03;;;;;;;4.63;1.65;;;12.60;95.00;;;;;;5107450;28;20056;-53
2023/10/28 06:18:29;;;;;;;6.75;2.00;;;12.60;95.00;;;;;;5107292;28;20028;-53
2023/10/28 06:20:55;;;;;;;4.97;1.77;;;12.60;95.00;;;;;;5072557;28;20403;-53
2023/10/28 06:23:20;;;;;;;2.50;1.38;;;12.60;95.00;;;;;;5072430;28;20074;-53
2023/10/28 06:25:46;;;;;;;2.03;1.40;;;12.60;95.00;;;;;;5072554;28;20032;-54
2023/10/28 06:28:12;;;;;;;2.40;1.60;;;12.60;95.00;;;;;;5089085;28;20059;-53
2023/10/28 06:30:50;;;;;;;2.00;1.45;;;12.60;95.00;;;;;;5107122;28;20032;-53
2023/10/28 06:33:16;;;;;;;3.67;1.65;;;12.60;95.00;;;;;;5089138;28;20020;-53
2023/10/28 06:35:42;;;;;;;2.78;1.80;;;12.60;95.00;;;;;;5089072;28;20028;-53
2023/10/28 06:38:08;;;;;;;2.03;1.50;;;12.60;95.00;;;;;;5088879;28;20032;-53
2023/10/28 06:40:37;;;;;;;3.53;1.70;;;12.60;95.00;;;;;;5072162;28;20091;-53
2023/10/28 06:43:03;;;;;;;4.45;1.50;;;12.60;95.00;;;;;;5072879;28;20036;-53
2023/10/28 06:45:28;;;;;;;3.67;1.65;;;12.60;94.90;;;;;;5106915;28;20074;-53
2023/10/28 06:47:54;;;;;;;2.72;1.45;;;12.60;94.90;;;;;;5107008;28;20027;-53
2023/10/28 06:50:19;;;;;;;3.88;1.52;;;12.60;94.90;;;;;;5088827;28;20031;-53
2023/10/28 06:52:48;;;;;;;3.05;1.63;;;12.60;94.90;;;;;;5106996;28;20043;-53
2023/10/28 06:55:14;;;;;;;2.72;1.30;;;12.60;94.90;;;;;;5088562;28;20027;-53
2023/10/28 06:57:39;;;;;;;3.67;1.45;;;12.60;94.90;;;;;;5106700;28;20388;-53
2023/10/28 07:00:05;;;;;;;3.40;1.65;;;12.60;94.90;;;;;;5088516;28;20464;-53
2023/10/28 07:02:32;;;;;;;3.17;1.40;;;12.60;95.00;;;;;;5106534;28;20026;-53
2023/10/28 07:04:58;;;;;;;3.33;1.40;;;12.60;95.00;;;;;;5088433;28;20024;-54
2023/10/28 07:07:23;;;;;;;3.03;1.58;;;12.60;95.00;;;;;;5088451;28;20024;-53
2023/10/28 07:09:49;;;;;;;3.40;1.33;;;12.60;95.00;;;;;;5088418;28;20096;-53
2023/10/28 07:12:14;;;;;;;1.58;1.20;;;12.60;94.90;;;;;;5106526;28;20016;-53
2023/10/28 07:14:40;;;;;;;2.85;1.33;;;12.60;95.20;;;;;;5106685;28;20495;-54
2023/10/28 07:17:06;;;;;;;3.92;1.40;;;12.60;95.00;;;;;;5088370;28;20028;-53
2023/10/28 07:19:31;;;;;;;2.97;1.20;;;12.60;95.00;;;;;;5088384;28;20108;-53
2023/10/28 07:21:57;;;;;;;2.63;1.55;;;12.60;95.00;;;;;;5106193;28;20522;-53
2023/10/28 07:24:22;;;;;;;4.75;1.38;;;12.60;95.00;;;;;;5072006;28;20039;-53
2023/10/28 07:26:48;;;;;;;5.38;1.38;;;12.60;95.00;;;;;;5088611;28;20028;-53
2023/10/28 07:29:13;;;;;;;3.92;1.17;;;12.60;95.00;;;;;;5071512;28;20211;-53
2023/10/28 07:31:39;;;;;;;3.20;1.20;;;12.60;95.00;;;;;;5088322;28;20542;-53
2023/10/28 07:34:05;;;;;;;3.00;1.40;;;12.60;95.00;;;;;;5088235;28;20042;-53
2023/10/28 07:36:32;;;;;;;4.55;1.25;;;12.60;95.10;;;;;;5088378;28;20021;-53
2023/10/28 07:39:01;;;;;;;2.10;1.05;;;12.60;95.10;;;;;;5071334;28;20091;-53
2023/10/28 07:41:28;;;;;;;2.78;1.65;;;12.60;95.10;;;;;;5071614;28;20484;-53
2023/10/28 07:43:53;;;;;;;2.15;1.10;;;12.70;95.10;;;;;;5106189;28;20031;-53
2023/10/28 07:46:19;;;;;;;2.33;1.25;;;12.60;95.10;;;;;;5088074;28;20039;-53
2023/10/28 07:48:45;;;;;;;2.45;1.23;;;12.60;95.10;;;;;;5105849;28;20059;-53
2023/10/28 07:51:16;;;;;;;1.63;1.25;;;12.60;95.10;;;;;;5087646;28;20032;-53
2023/10/28 07:53:42;;;;;;;3.60;0.90;;;12.60;95.40;;;;;;5070642;28;20017;-53
2023/10/28 07:56:07;;;;;;;6.90;1.00;;;12.60;95.20;;;;;;5069478;28;20074;-53
2023/10/28 07:58:33;;;;;;;1.75;1.00;;;12.60;95.20;;;;;;5087840;28;20031;-53
2023/10/28 08:00:58;;;;;;;3.03;1.17;;;12.60;95.20;;;;;;5105909;28;20046;-53
2023/10/28 08:03:25;;;;;;;1.88;1.10;;;12.60;95.20;;;;;;5087912;28;20069;-53
2023/10/28 08:05:50;;;;;;;2.25;0.98;;;12.60;95.30;;;;;;5087405;28;20092;-53
2023/10/28 08:08:16;;;;;;;3.35;1.27;;;12.60;95.30;;;;;;5090776;28;20048;-53
2023/10/28 08:10:42;;;;;;;3.97;1.08;;;12.60;95.30;;;;;;5073598;28;20463;-53
2023/10/28 08:13:07;;;;;;;1.58;0.90;;;12.60;95.30;;;;;;5108150;28;20030;-53
2023/10/28 08:15:33;;;;;;;1.55;0.98;;;12.60;95.30;;;;;;5073193;28;20032;-53
2023/10/28 08:17:59;;;;;;;2.58;1.20;;;12.60;95.30;;;;;;5109069;28;20031;-53
2023/10/28 08:20:24;;;;;;;3.05;1.00;;;12.70;95.40;;;;;;5091311;28;20031;-53
2023/10/28 08:22:50;;;;;;;2.85;1.05;;;12.70;95.30;;;;;;5108240;28;20468;-54
2023/10/28 08:25:16;;;;;;;5.15;1.40;;;12.70;95.40;;;;;;5087120;28;20017;-53
2023/10/28 08:27:42;;;;;;;5.40;1.38;;;12.70;95.40;;;;;;5087982;28;20044;-53
2023/10/28 08:30:08;;;;;;;4.30;1.50;;;12.70;95.50;;;;;;5070427;28;20024;-53
2023/10/28 08:32:34;;;;;;;7.20;1.65;;;12.70;95.50;;;;;;5087337;28;20016;-53
2023/10/28 08:35:00;;;;;;;8.38;1.42;;;12.70;95.40;;;;;;5086188;28;20086;-53
2023/10/28 08:37:25;;;;;;;6.18;1.85;;;12.70;95.40;;;;;;5091688;28;20039;-53
2023/10/28 08:39:53;;;;;;;18.80;2.25;;;12.80;95.40;;;;;;5108065;28;20039;-53
2023/10/28 08:42:19;;;;;;;16.23;2.42;;;12.80;95.50;;;;;;5108525;28;20146;-53
2023/10/28 08:44:44;;;;;;;16.45;2.80;;;12.80;95.50;;;;;;5052434;28;20032;-53
2023/10/28 08:47:10;;;;;;;47.58;5.80;;;12.80;95.50;;;;;;5053554;28;20025;-53
2023/10/28 08:49:36;;;;;;;39.45;5.15;;;12.90;95.70;;;;;;5036271;28;20059;-53
2023/10/28 08:52:02;;;;;;;41.88;6.50;;;12.90;95.90;;;;;;5087319;28;20027;-53
2023/10/28 08:54:28;;;;;;;56.35;6.38;;;12.90;95.90;;;;;;5070407;28;20044;-53
2023/10/28 08:56:54;;;;;;;54.55;6.25;;;12.90;96.00;;;;;;5053032;28;20380;-53
2023/10/28 08:59:20;;;;;;;64.88;8.20;;;12.90;96.10;;;;;;5051666;28;20036;-53
2023/10/28 09:01:46;;;;;;;42.65;7.18;;;12.90;96.20;;;;;;5085675;28;20047;-53
2023/10/28 09:04:11;;;;;;;75.80;10.40;;;13.00;96.30;;;;;;5048895;28;21354;-53
2023/10/28 09:06:39;;;;;;;71.13;9.60;;;13.00;96.20;;;;;;5054662;28;20060;-53
2023/10/28 09:09:09;;;;;;;76.97;9.32;;;13.00;96.30;;;;;;5083796;28;20032;-53
2023/10/28 09:11:36;;;;;;;67.75;9.63;;;13.00;96.40;;;;;;5069210;28;20044;-53
2023/10/28 09:14:08;;;;;;;78.80;9.95;;;13.00;96.40;;;;;;5071805;28;20021;-53
2023/10/28 09:16:34;;;;;;;120.40;13.13;;;13.10;96.60;;;;;;5053242;28;20029;-53
2023/10/28 09:19:01;;;;;;;145.70;16.15;;;13.10;96.70;;;;;;5068287;28;20340;-53
2023/10/28 09:21:27;;;;;;;98.32;11.38;;;13.10;96.80;;;;;;5084532;28;20419;-53
2023/10/28 09:23:52;;;;;;;108.32;13.15;;;13.10;96.80;;;;;;5067322;28;20028;-53
2023/10/28 09:26:18;;;;;;;122.07;14.15;;;13.20;96.80;;;;;;5074562;28;20035;-54
2023/10/28 09:28:47;;;;;;;143.05;16.17;;;13.20;96.80;;;;;;5084391;28;20016;-54
2023/10/28 09:31:21;;;;;;;174.30;21.23;;;13.20;96.90;;;;;;5050013;28;20067;-54
2023/10/28 09:33:47;;;;;;;150.83;18.37;;;13.20;96.90;;;;;;5056093;28;20040;-54
2023/10/28 09:36:12;;;;;;;152.85;16.55;;;13.30;97.20;;;;;;5049040;28;20289;-54
2023/10/28 09:38:40;;;;;;;168.05;17.20;;;13.30;97.10;;;;;;5032803;28;20080;-54
2023/10/28 09:41:07;;;;;;;111.45;15.82;;;13.30;97.10;;;;;;5050511;28;20044;-53
2023/10/28 09:43:32;;;;;;;152.48;18.25;;;13.30;97.00;;;;;;5071261;28;20112;-54
2023/10/28 09:45:58;;;;;;;128.57;16.17;;;13.40;97.10;;;;;;5061313;28;20056;-54
2023/10/28 09:48:23;;;;;;;162.95;19.77;;;13.40;97.30;;;;;;5045905;28;20044;-53
2023/10/28 09:50:50;;;;;;;178.50;18.02;;;13.50;97.30;;;;;;5059541;28;20032;-54
2023/10/28 09:53:34;;;;;;;155.40;19.25;;;13.50;97.50;;;;;;5066380;28;20052;-54
2023/10/28 09:56:00;;;;;;;170.75;20.05;;;13.50;97.60;;;;;;5076270;28;20093;-54
2023/10/28 09:59:00;;;;;;;154.07;22.85;;;13.50;97.70;;;;;;5066842;28;20058;-54
2023/10/28 10:01:37;;;;;;;174.30;22.65;;;13.60;97.70;;;;;;5066108;28;20036;-54
2023/10/28 10:04:33;;;;;;;170.90;23.00;;;13.60;97.80;;;;;;5066057;28;20028;-54
2023/10/28 10:06:58;;;;;;;187.40;24.77;;;13.60;97.70;;;;;;5050678;28;20020;-54
2023/10/28 10:09:24;;;;;;;193.02;24.50;;;13.70;98.00;;;;;;5068096;28;20451;-54
2023/10/28 10:11:49;;;;;;;206.32;23.15;;;13.60;97.60;;;;;;5035696;28;20085;-54
2023/10/28 10:14:16;;;;;;;191.45;22.33;;;13.70;97.60;;;;;;5082335;28;20024;-54
2023/10/28 10:16:42;;;;;;;171.10;23.27;;;13.70;97.50;;;;;;5058971;28;20064;-53
2023/10/28 10:19:11;;;;;;;203.85;23.90;;;13.70;97.40;;;;;;5082755;28;20021;-54
2023/10/28 10:21:37;;;;;;;203.25;25.55;;;13.70;97.40;;;;;;5051640;28;20058;-54
2023/10/28 10:24:06;;;;;;;200.50;25.80;;;13.70;97.40;;;;;;5084066;28;20036;-54
2023/10/28 10:26:33;;;;;;;198.88;25.63;;;13.70;97.40;;;;;;5050645;28;20025;-54
2023/10/28 10:28:59;;;;;;;226.10;26.60;;;13.80;97.40;;;;;;5014363;28;20029;-54
2023/10/28 10:31:43;;;;;;;202.73;23.67;;;13.80;97.40;;;;;;5048210;28;20029;-54
2023/10/28 10:34:09;;;;;;;220.32;24.17;;;13.80;97.20;;;;;;5048262;28;20059;-54
2023/10/28 10:36:40;;;;;;;225.45;27.15;;;13.90;96.90;;;;;;5048650;28;20021;-54
2023/10/28 10:39:16;;;;;;;183.25;24.25;;;13.90;96.70;;;;;;5048217;28;20367;-53
2023/10/28 10:41:43;;;;;;;222.40;26.13;;;13.90;96.70;;;;;;5048291;28;20109;-54
2023/10/28 10:44:25;;;;;;;264.35;29.85;;;13.90;96.70;;;;;;5062757;28;20116;-54
2023/10/28 10:46:53;;;;;;;251.68;29.02;;;14.00;96.60;;;;;;5072047;28;20032;-54
2023/10/28 10:49:19;;;;;;;235.55;29.38;;;14.10;96.50;;;;;;5067965;28;20044;-54
2023/10/28 10:51:45;;;;;;;219.82;28.60;;;14.00;96.50;;;;;;5102045;28;20032;-54
2023/10/28 10:54:10;;;;;;;237.45;27.58;;;14.00;96.40;;;;;;5071523;28;20034;-54
2023/10/28 10:56:36;;;;;;;259.15;30.25;;;14.10;96.40;;;;;;5106335;28;20107;-54
2023/10/28 10:59:02;;;;;;;247.05;28.77;;;14.10;96.30;;;;;;5095375;28;20442;-54
2023/10/28 11:01:28;;;;;;;258.42;29.58;;;14.20;96.20;;;;;;5064620;28;20079;-54
2023/10/28 11:03:55;;;;;;;217.68;27.08;;;14.20;96.00;;;;;;5103078;28;20036;-54
2023/10/28 11:06:21;;;;;;;250.57;28.15;;;14.20;95.80;;;;;;5086106;28;20434;-54
2023/10/28 11:08:47;;;;;;;209.45;25.48;;;14.30;95.60;;;;;;5086842;28;20059;-54
2023/10/28 11:11:13;;;;;;;219.27;25.70;;;14.30;95.50;;;;;;5087518;28;20036;-54
2023/10/28 11:13:39;;;;;;;178.70;25.75;;;14.30;95.40;;;;;;5070820;28;20040;-53
2023/10/28 11:16:05;;;;;;;157.88;21.80;;;14.40;95.30;;;;;;5063497;28;20067;-54
2023/10/28 11:18:30;;;;;;;195.25;25.50;;;14.40;95.20;;;;;;5051163;28;20028;-54
2023/10/28 11:20:56;;;;;;;209.90;25.70;;;14.40;95.20;;;;;;5051031;28;20029;-54
2023/10/28 11:23:22;;;;;;;253.50;27.45;;;14.50;95.10;;;;;;5082923;28;20040;-54
2023/10/28 11:25:49;;;;;;;194.35;25.55;;;14.60;94.90;;;;;;5070751;28;20050;-54
2023/10/28 11:28:14;;;;;;;206.35;25.35;;;14.60;94.90;;;;;;5071318;28;20487;-54
2023/10/28 11:30:50;;;;;;;282.15;31.00;;;14.60;94.70;;;;;;5105981;28;20055;-54
2023/10/28 11:33:16;;;;;;;244.70;29.83;;;14.70;94.70;;;;;;5070673;28;20032;-54
2023/10/28 11:35:41;;;;;;;204.70;25.15;;;14.70;94.80;;;;;;5044503;28;20032;-54
2023/10/28 11:38:07;;;;;;;249.70;27.17;;;14.80;94.90;;;;;;5046770;28;20036;-55
2023/10/28 11:40:33;;;;;;;267.08;28.98;;;14.80;94.80;;;;;;5070992;28;20021;-54
2023/10/28 11:43:03;;;;;;;261.33;28.30;;;14.80;94.80;;;;;;5090286;28;20082;-54
2023/10/28 11:45:28;;;;;;;263.52;29.35;;;14.50;94.70;;;;;;5074046;28;20047;-53
2023/10/28 11:47:54;;;;;;;179.88;21.75;;;14.90;94.80;;;;;;5109632;28;20031;-54
2023/10/28 11:50:21;;;;;;;210.10;28.08;;;14.90;94.50;;;;;;5082282;28;20495;-54
2023/10/28 11:52:47;;;;;;;256.92;32.00;;;14.90;94.20;;;;;;5051779;28;20098;-54
2023/10/28 11:55:13;;;;;;;235.52;28.58;;;14.90;94.40;;;;;;5051880;28;20029;-54
2023/10/28 11:57:38;;;;;;;275.52;34.08;;;14.90;94.40;;;;;;5049470;28;20063;-54
2023/10/28 12:00:05;;;;;;;265.52;30.73;;;15.00;94.20;;;;;;5079731;28;20025;-53
2023/10/28 12:02:30;;;;;;;243.38;31.27;;;15.00;94.20;;;;;;5064731;28;20088;-54
2023/10/28 12:04:56;;;;;;;237.57;28.10;;;15.00;94.30;;;;;;5031178;28;20060;-54
2023/10/28 12:07:21;;;;;;;209.48;25.52;;;15.10;94.20;;;;;;5051476;28;20031;-54
2023/10/28 12:09:47;;;;;;;191.65;25.17;;;15.10;93.90;;;;;;5081833;28;20473;-54
2023/10/28 12:12:13;;;;;;;275.33;29.42;;;15.10;93.80;;;;;;5051964;28;20079;-54
2023/10/28 12:14:38;;;;;;;238.80;28.83;;;15.20;93.80;;;;;;5049630;28;20077;-54
2023/10/28 12:17:04;;;;;;;236.93;27.92;;;15.20;93.80;;;;;;5064422;28;20071;-54
2023/10/28 12:19:30;;;;;;;206.07;25.40;;;15.20;93.70;;;;;;5067267;28;20028;-53
2023/10/28 12:21:55;;;;;;;221.95;27.58;;;15.20;93.70;;;;;;5046533;28;20052;-54
2023/10/28 12:24:21;;;;;;;210.50;25.27;;;15.20;93.80;;;;;;5049776;28;20846;-54
2023/10/28 12:26:47;;;;;;;215.82;28.35;;;15.30;93.70;;;;;;5064973;28;20036;-54
2023/10/28 12:29:13;;;;;;;203.95;29.42;;;15.30;93.60;;;;;;5057232;28;20354;-54
2023/10/28 12:31:39;;;;;;;282.38;30.98;;;15.30;93.60;;;;;;5063143;28;20158;-54
2023/10/28 12:34:04;;;;;;;249.32;28.98;;;15.40;93.60;;;;;;5075159;28;20020;-54